weather station
Area: 7197 km2
The highest point: Čupec (819 m.s.l.)
Total stations: 31
Stations online: 30
Stations offline: 1
Current weather
21°C

Meteorological map - weather stations in Jihomoravský

. The meteorological maps show weather information from WARIO weather stations

Weather stations Jihomoravský

 UpdatesNameStatusTemperatureHumidityWind speedWind direction
1.9.2026 16:19Olešnice20.5 °C59.4 %0.0 m/s SE
1.9.2026 16:19Archlebov23.1 °C48.5 %2.6 m/s SW
1.9.2026 16:20Hustopeče25.0 °C34.2 %2.7 m/s E
1.9.2026 16:20Boskovice22.0 °C45.4 %1.0 m/s NE
1.9.2026 16:20Brno - Královo Pole22.8 °C44.2 %0.0 m/s SW
1.9.2026 16:20Brno-Kníničky26.2 °C43.6 %0.0 m/s N
1.9.2026 16:19Bzenec24.5 °C40.9 %0.0 m/s SW
1.9.2026 16:20Nížkovice24.9 °C36.9 %1.2 m/s NW
1.9.2026 16:19Tvrdonice25.2 °C35.8 %4.3 m/s SE
1.9.2026 16:19Lesní Hluboké 26.3 °C41.5 %1.2 m/s E
1.9.2026 16:19Brno - Lesná-40.0 °C %0.0 m/s W
1.9.2026 16:20Olešnice19.9 °C51.3 %1.1 m/s NW
1.9.2026 16:20Brno - Jih25.7 °C32.2 %0.0 m/s W
1.9.2026 16:20Mutěnice23.9 °C44.4 %3.1 m/s NW
1.9.2026 16:19Blansko24.1 °C45.5 %1.6 m/s SW
1.9.2026 16:19Pohořelice23.7 °C43.1 %3.2 m/s E
1.9.2026 16:20Popůvky22.3 °C41.2 %2.7 m/s SE
1.9.2026 16:20Pozořice22.7 °C40.0 %3.0 m/s NW
1.9.2026 16:20Veselí nad Moravou23.5 °C44.5 %1.2 m/s E
1.9.2026 16:20Radslavice22.3 °C39.8 %2.2 m/s NW
31.7.2026 10:10Senorady29.6 °C38.1 %1.1 m/s E
1.9.2026 16:20Šlapanice25.5 °C46.1 %0.0 m/s N
1.9.2026 16:19Strážnice GUMEX24.2 °C42.1 %4.1 m/s E
1.9.2026 16:20Němčičky27.1 °C35.0 %0.9 m/s NW
1.9.2026 16:19Předklášteří22.2 °C40.1 %1.0 m/s SW
1.9.2026 16:19Veselí nad Moravou23.4 °C40.0 %2.2 m/s N
1.9.2026 16:20Kněževes Veselka18.1 °C52.8 %2.5 m/s SW
1.9.2026 16:20Vlasatice24.4 °C33.4 %2.7 m/s SW
1.9.2026 16:19Vranov21.1 °C47.1 %1.3 m/s NW
1.9.2026 16:20Žarošice25.9 °C36.5 %0.0 m/s NE
1.9.2026 16:19Zbraslav20.8 °C42.5 %3.1 m/s N
Email notifications
Enter your email address to subscribe to notifications about news at warioweather.com. Your email address will not be used for any purpose other than sending these emails and will not be provided to any third party. The subscription can be ended at any time.
All data are only indicative. The portal administrator has no responsibility for potentially incorrect data and related consequences. Publishing or further sharing of content from www.warioweather.com is only allowed with written consent from WANET s.r.o.